createdAt,value
2023-03-03T00:01:50.585Z,11.36
2023-03-03T00:04:21.332Z,11.17
2023-03-03T00:06:50.867Z,11.58
2023-03-03T00:09:20.430Z,11.21
2023-03-03T00:11:59.250Z,11.01
2023-03-03T00:14:32.206Z,10.89
2023-03-03T00:17:14.280Z,10.32
2023-03-03T00:19:47.540Z,11.23
2023-03-03T00:22:23.910Z,11.36
2023-03-03T00:24:53.199Z,11.13
2023-03-03T00:27:31.325Z,11.35
2023-03-03T00:30:01.404Z,10.80
2023-03-03T00:32:39.918Z,10.90
2023-03-03T00:35:26.115Z,10.50
2023-03-03T00:37:58.510Z,10.88
2023-03-03T00:40:33.083Z,11.29
2023-03-03T00:43:03.712Z,10.21
2023-03-03T00:45:39.841Z,11.50
2023-03-03T00:48:28.487Z,11.74
2023-03-03T00:51:00.548Z,11.11
2023-03-03T00:53:31.925Z,11.23
2023-03-03T00:56:01.331Z,11.72
2023-03-03T00:58:31.216Z,11.46
2023-03-03T01:01:00.638Z,10.70
2023-03-03T01:03:40.347Z,11.34
2023-03-03T01:06:11.999Z,11.87
2023-03-03T01:08:41.689Z,10.83
2023-03-03T01:11:16.316Z,10.72
2023-03-03T01:13:49.637Z,11.38
2023-03-03T01:16:19.519Z,11.21
2023-03-03T01:18:49.406Z,10.28
2023-03-03T01:21:20.202Z,11.19
2023-03-03T01:23:49.798Z,10.66
2023-03-03T01:26:19.101Z,11.25
2023-03-03T01:28:48.819Z,11.88
2023-03-03T01:31:19.784Z,10.49
2023-03-03T01:33:49.658Z,12.03
2023-03-03T01:36:25.321Z,10.64
2023-03-03T01:38:54.644Z,11.31
2023-03-03T01:41:23.941Z,10.73
2023-03-03T01:43:53.403Z,11.49
2023-03-03T01:46:44.492Z,10.92
2023-03-03T01:49:20.631Z,10.90
2023-03-03T01:51:53.636Z,11.11
2023-03-03T01:54:29.474Z,10.47
2023-03-03T01:57:04.219Z,11.26
2023-03-03T01:59:38.740Z,11.31
2023-03-03T02:02:09.218Z,11.06
2023-03-03T02:04:39.464Z,10.31
2023-03-03T02:07:12.337Z,10.61
2023-03-03T02:09:52.840Z,11.23
2023-03-03T02:12:32.378Z,9.91
2023-03-03T02:15:02.063Z,10.24
2023-03-03T02:17:31.445Z,12.42
2023-03-03T02:20:08.801Z,12.01
2023-03-03T02:22:46.535Z,11.29
2023-03-03T02:25:23.674Z,11.40
2023-03-03T02:27:56.522Z,11.32
2023-03-03T02:30:26.642Z,10.92
2023-03-03T02:32:56.132Z,10.95
2023-03-03T02:35:31.668Z,11.30
2023-03-03T02:38:10.989Z,11.37
2023-03-03T02:40:48.885Z,11.58
2023-03-03T02:43:23.931Z,11.74
2023-03-03T02:45:53.747Z,11.51
2023-03-03T02:48:23.229Z,11.19
2023-03-03T02:50:52.800Z,10.58
2023-03-03T02:53:22.179Z,12.22
2023-03-03T02:55:51.869Z,11.77
2023-03-03T02:58:22.727Z,11.90
2023-03-03T03:00:52.393Z,12.46
2023-03-03T03:03:24.983Z,11.52
2023-03-03T03:05:55.333Z,12.52
2023-03-03T03:08:26.252Z,12.20
2023-03-03T03:10:57.628Z,11.32
2023-03-03T03:13:31.195Z,11.92
2023-03-03T03:16:01.426Z,12.10
2023-03-03T03:18:32.214Z,11.75
2023-03-03T03:21:09.020Z,12.17
2023-03-03T03:23:38.679Z,11.52
2023-03-03T03:26:09.362Z,12.33
2023-03-03T03:28:40.471Z,12.45
2023-03-03T03:36:23.444Z,12.05
2023-03-03T03:38:53.938Z,12.82
2023-03-03T03:41:24.772Z,13.09
2023-03-03T03:43:55.708Z,12.33
2023-03-03T03:46:25.363Z,11.92
2023-03-03T03:48:55.232Z,12.61
2023-03-03T03:51:24.662Z,13.05
2023-03-03T03:53:54.238Z,12.93
2023-03-03T03:56:23.596Z,12.86
2023-03-03T03:58:58.115Z,13.77
2023-03-03T04:01:27.727Z,13.25
2023-03-03T04:03:57.482Z,12.75
2023-03-03T04:06:27.346Z,13.00
2023-03-03T04:08:57.584Z,13.71
2023-03-03T04:11:28.519Z,13.96
2023-03-03T04:13:59.865Z,13.89
2023-03-03T04:16:29.595Z,14.34
2023-03-03T04:18:59.397Z,14.92
2023-03-03T04:21:29.250Z,14.08
2023-03-03T04:24:01.780Z,14.35
2023-03-03T04:26:32.313Z,13.84
2023-03-03T04:29:05.898Z,15.00
2023-03-03T04:31:35.520Z,14.06
2023-03-03T04:34:06.752Z,14.03
2023-03-03T04:36:36.088Z,13.70
2023-03-03T04:39:05.873Z,14.90
2023-03-03T04:41:35.410Z,14.13
2023-03-03T04:44:07.582Z,14.11
2023-03-03T04:46:37.084Z,13.59
2023-03-03T04:49:10.798Z,14.44
2023-03-03T04:51:41.484Z,13.87
2023-03-03T04:54:11.196Z,14.33
2023-03-03T04:56:40.435Z,15.12
2023-03-03T04:59:12.052Z,13.50
2023-03-03T05:01:42.051Z,14.95
2023-03-03T05:04:12.396Z,14.41
2023-03-03T05:06:41.937Z,14.82
2023-03-03T05:09:11.592Z,13.98
2023-03-03T05:11:40.826Z,13.87
2023-03-03T05:14:12.554Z,13.71
2023-03-03T05:16:42.207Z,13.50
2023-03-03T05:19:11.939Z,14.60
2023-03-03T05:21:42.934Z,15.11
2023-03-03T05:24:14.039Z,14.73
2023-03-03T05:26:43.738Z,15.35
2023-03-03T05:29:14.742Z,15.16
2023-03-03T05:31:45.628Z,15.30
2023-03-03T05:34:15.510Z,14.93
2023-03-03T05:36:44.837Z,14.63
2023-03-03T05:39:14.525Z,15.32
2023-03-03T05:41:43.984Z,15.09
2023-03-03T05:44:14.999Z,15.97
2023-03-03T05:46:44.592Z,15.25
2023-03-03T05:49:14.136Z,16.29
2023-03-03T05:51:43.368Z,16.03
2023-03-03T05:54:13.163Z,16.64
2023-03-03T05:56:42.517Z,15.48
2023-03-03T05:59:13.474Z,14.68
2023-03-03T06:01:42.944Z,15.45
2023-03-03T06:04:12.567Z,15.48
2023-03-03T06:06:42.184Z,15.10
2023-03-03T06:09:11.986Z,15.88
2023-03-03T06:11:41.341Z,14.66
2023-03-03T06:14:10.797Z,15.02
2023-03-03T06:16:41.503Z,15.28
2023-03-03T06:19:11.236Z,15.50
2023-03-03T06:21:40.602Z,15.62
2023-03-03T06:24:10.511Z,15.52
2023-03-03T06:26:39.793Z,15.43
2023-03-03T06:29:09.770Z,15.43
2023-03-03T06:31:40.550Z,15.07
2023-03-03T06:34:10.366Z,15.36
2023-03-03T06:36:39.619Z,15.57
2023-03-03T06:39:09.174Z,15.81
2023-03-03T06:41:38.673Z,15.47
2023-03-03T06:44:08.195Z,15.52
2023-03-03T06:46:37.524Z,15.47
2023-03-03T06:49:08.681Z,16.33
2023-03-03T06:51:40.055Z,15.19
2023-03-03T06:54:14.423Z,15.33
2023-03-03T06:56:44.951Z,15.81
2023-03-03T06:59:16.244Z,16.25
2023-03-03T07:01:46.964Z,16.70
2023-03-03T07:04:28.884Z,16.30
2023-03-03T07:07:00.106Z,16.77
2023-03-03T07:09:31.000Z,15.31
2023-03-03T07:12:07.928Z,16.58
2023-03-03T07:14:43.462Z,15.56
2023-03-03T07:17:18.093Z,15.30
2023-03-03T07:19:50.111Z,16.75
2023-03-03T07:22:22.098Z,16.40
2023-03-03T07:24:53.782Z,18.40
2023-03-03T07:27:27.061Z,17.84
2023-03-03T07:30:02.756Z,17.70
2023-03-03T07:32:40.573Z,17.44
2023-03-03T07:35:31.157Z,16.76
2023-03-03T07:38:01.310Z,17.41
2023-03-03T07:40:38.479Z,19.61
2023-03-03T07:43:36.160Z,17.07
2023-03-03T07:46:22.924Z,17.36
2023-03-03T07:48:53.556Z,17.74
2023-03-03T07:51:27.619Z,17.62
2023-03-03T07:54:16.126Z,17.71
2023-03-03T07:56:45.777Z,17.28
2023-03-03T07:59:23.019Z,17.80
2023-03-03T08:01:55.433Z,16.99
2023-03-03T08:04:29.954Z,18.00
2023-03-03T08:07:03.412Z,18.02
2023-03-03T08:09:43.847Z,17.74
2023-03-03T08:12:35.357Z,18.12
2023-03-03T08:15:21.549Z,18.38
2023-03-03T08:17:52.706Z,18.75
2023-03-03T08:20:53.631Z,18.26
2023-03-03T08:23:25.294Z,18.54
2023-03-03T08:25:55.314Z,18.03
2023-03-03T08:28:25.364Z,18.77
2023-03-03T08:31:08.941Z,18.57
2023-03-03T08:33:44.804Z,19.49
2023-03-03T08:36:15.006Z,18.11
2023-03-03T08:38:46.271Z,19.84
2023-03-03T08:41:15.782Z,19.18
2023-03-03T08:43:45.826Z,18.78
2023-03-03T08:46:15.320Z,19.34
2023-03-03T08:48:45.212Z,18.32
2023-03-03T08:51:14.472Z,19.36
2023-03-03T08:53:45.450Z,17.60
2023-03-03T08:56:14.863Z,17.66
2023-03-03T08:59:01.289Z,18.58
2023-03-03T09:01:32.421Z,18.24
2023-03-03T09:04:02.040Z,17.95
2023-03-03T09:06:31.413Z,17.37
2023-03-03T09:09:02.953Z,17.40
2023-03-03T09:11:32.770Z,18.42
2023-03-03T09:14:08.627Z,19.39
2023-03-03T09:16:41.035Z,18.18
2023-03-03T09:19:25.277Z,18.30
2023-03-03T09:21:55.920Z,18.05
2023-03-03T09:24:31.653Z,18.99
2023-03-03T09:27:01.485Z,19.21
2023-03-03T09:29:32.514Z,18.99
2023-03-03T09:32:09.975Z,19.53
2023-03-03T09:34:41.831Z,19.57
2023-03-03T09:37:23.159Z,20.41
2023-03-03T09:39:56.005Z,18.65
2023-03-03T09:42:43.018Z,19.21
2023-03-03T09:45:31.874Z,19.81
2023-03-03T09:48:23.853Z,19.74
2023-03-03T09:51:12.246Z,21.13
2023-03-03T09:54:05.473Z,20.51
2023-03-03T09:56:43.521Z,21.34
2023-03-03T09:59:29.845Z,20.59
2023-03-03T10:02:25.826Z,20.87
2023-03-03T10:05:20.738Z,20.71
2023-03-03T10:08:02.036Z,19.99
2023-03-03T10:10:52.087Z,19.37
2023-03-03T10:13:34.829Z,20.66
2023-03-03T10:16:23.967Z,19.93
2023-03-03T10:18:59.753Z,20.08
2023-03-03T10:21:37.296Z,19.56
2023-03-03T10:24:22.092Z,21.20
2023-03-03T10:27:13.845Z,22.23
2023-03-03T10:29:59.507Z,21.26
2023-03-03T10:32:41.090Z,22.30
2023-03-03T10:35:26.140Z,23.58
2023-03-03T10:38:14.697Z,25.73
2023-03-03T10:40:52.742Z,25.21
2023-03-03T10:43:42.964Z,28.84
2023-03-03T10:46:38.370Z,28.89
2023-03-03T10:49:24.018Z,28.53
2023-03-03T10:52:19.365Z,28.32
2023-03-03T10:55:23.246Z,27.96
2023-03-03T10:58:04.136Z,25.09
2023-03-03T11:00:40.257Z,28.27
2023-03-03T11:03:40.090Z,31.61
2023-03-03T11:06:15.817Z,28.47
2023-03-03T11:08:51.482Z,26.23
2023-03-03T11:11:27.736Z,27.38
2023-03-03T11:14:05.218Z,26.01
2023-03-03T11:16:45.192Z,25.43
2023-03-03T11:19:32.111Z,26.97
2023-03-03T11:22:15.921Z,27.91
2023-03-03T11:24:56.222Z,28.21
2023-03-03T11:27:53.868Z,27.49
2023-03-03T11:30:38.082Z,28.28
2023-03-03T11:33:11.186Z,28.83
2023-03-03T11:35:47.670Z,28.01
2023-03-03T11:38:32.876Z,27.72
2023-03-03T11:41:09.575Z,30.60
2023-03-03T11:43:44.010Z,31.98
2023-03-03T11:46:17.685Z,29.52
2023-03-03T11:48:55.399Z,31.80
2023-03-03T11:51:35.618Z,30.77
2023-03-03T11:54:16.845Z,34.36
2023-03-03T11:56:48.728Z,33.47
2023-03-03T11:59:45.857Z,33.62
2023-03-03T12:02:29.228Z,33.46
2023-03-03T12:05:07.747Z,35.76
2023-03-03T12:07:46.139Z,33.48
2023-03-03T12:10:25.972Z,32.42
2023-03-03T12:13:04.045Z,33.16
2023-03-03T12:15:42.802Z,32.85
2023-03-03T12:18:36.294Z,30.50
2023-03-03T12:21:30.844Z,33.52
2023-03-03T12:24:31.122Z,34.61
2023-03-03T12:27:12.817Z,36.56
2023-03-03T12:29:51.382Z,36.65
2023-03-03T12:32:35.958Z,35.13
2023-03-03T12:35:13.473Z,33.26
2023-03-03T12:37:49.404Z,33.16
2023-03-03T12:40:22.037Z,31.57
2023-03-03T12:43:07.979Z,34.59
2023-03-03T12:45:45.362Z,32.52
2023-03-03T12:48:19.230Z,32.79
2023-03-03T12:51:00.500Z,36.03
2023-03-03T12:53:52.262Z,37.62
2023-03-03T12:56:31.401Z,37.14
2023-03-03T12:59:06.170Z,36.34
2023-03-03T13:01:44.529Z,34.63
2023-03-03T13:04:27.257Z,35.49
2023-03-03T13:07:03.880Z,32.83
2023-03-03T13:09:45.336Z,30.60
2023-03-03T13:12:33.839Z,32.98
2023-03-03T13:15:16.363Z,34.60
2023-03-03T13:18:01.134Z,34.54
2023-03-03T13:20:38.729Z,32.26
2023-03-03T13:23:14.911Z,33.52
2023-03-03T13:25:54.399Z,31.07
2023-03-03T13:28:32.623Z,32.95
2023-03-03T13:31:10.912Z,30.82
2023-03-03T13:33:41.875Z,30.29
2023-03-03T13:36:13.783Z,31.08
2023-03-03T13:38:48.654Z,31.23
2023-03-03T13:41:24.869Z,32.42
2023-03-03T13:43:58.638Z,32.57
2023-03-03T13:46:41.846Z,32.39
2023-03-03T13:49:26.125Z,32.01
2023-03-03T13:52:01.926Z,33.14
2023-03-03T13:54:49.476Z,32.75
2023-03-03T13:57:37.712Z,34.15
2023-03-03T14:00:17.342Z,31.54
2023-03-03T14:03:18.343Z,32.13
2023-03-03T14:05:50.113Z,33.52
2023-03-03T14:08:35.104Z,36.20
2023-03-03T14:11:12.834Z,36.14
2023-03-03T14:13:55.941Z,32.52
2023-03-03T14:16:46.747Z,30.99
2023-03-03T14:19:25.250Z,29.37
2023-03-03T14:22:07.149Z,26.67
2023-03-03T14:25:08.502Z,27.44
2023-03-03T14:27:41.460Z,25.37
2023-03-03T14:30:42.316Z,25.90
2023-03-03T14:33:25.744Z,25.54
2023-03-03T14:36:16.053Z,22.15
2023-03-03T14:38:48.373Z,21.68
2023-03-03T14:41:41.818Z,21.38
2023-03-03T14:44:28.353Z,22.21
2023-03-03T14:47:19.298Z,20.84
2023-03-03T14:49:49.288Z,23.12
2023-03-03T14:52:25.435Z,22.76
2023-03-03T14:54:57.118Z,22.26
2023-03-03T14:57:46.635Z,22.21
2023-03-03T15:00:34.682Z,20.78
2023-03-03T15:03:19.863Z,19.72
2023-03-03T15:05:53.636Z,21.11
2023-03-03T15:08:33.138Z,20.76
2023-03-03T15:11:21.561Z,20.83
2023-03-03T15:13:52.425Z,20.50
2023-03-03T15:16:26.258Z,19.56
2023-03-03T15:19:20.383Z,19.37
2023-03-03T15:22:01.230Z,19.32
2023-03-03T15:24:41.518Z,18.18
2023-03-03T15:27:20.458Z,18.28
2023-03-03T15:30:03.530Z,19.61
2023-03-03T15:32:42.322Z,19.52
2023-03-03T15:35:25.973Z,18.95
2023-03-03T15:38:04.251Z,19.77
2023-03-03T15:40:41.423Z,19.24
2023-03-03T15:43:23.117Z,18.15
2023-03-03T15:46:03.809Z,18.53
2023-03-03T15:48:47.398Z,18.70
2023-03-03T15:51:32.120Z,17.83
2023-03-03T15:54:24.106Z,17.97
2023-03-03T15:56:58.542Z,18.79
2023-03-03T15:59:46.477Z,19.01
2023-03-03T16:02:22.762Z,16.97
2023-03-03T16:05:01.559Z,17.02
2023-03-03T16:07:44.050Z,17.84
2023-03-03T16:10:26.281Z,18.50
2023-03-03T16:13:04.592Z,18.22
2023-03-03T16:15:46.818Z,17.79
2023-03-03T16:18:29.576Z,18.41
2023-03-03T16:21:20.391Z,17.91
2023-03-03T16:23:51.478Z,17.83
2023-03-03T16:26:38.274Z,17.56
2023-03-03T16:29:35.540Z,17.63
2023-03-03T16:32:13.022Z,17.41
2023-03-03T16:34:55.642Z,17.91
2023-03-03T16:37:31.752Z,17.64
2023-03-03T16:40:12.135Z,16.63
2023-03-03T16:42:41.876Z,18.14
2023-03-03T16:45:34.669Z,16.85
2023-03-03T16:48:27.339Z,16.36
2023-03-03T16:51:15.407Z,16.69
2023-03-03T16:53:55.937Z,17.61
2023-03-03T16:56:29.896Z,16.30
2023-03-03T16:59:18.730Z,16.19
2023-03-03T17:02:00.442Z,16.01
2023-03-03T17:04:41.245Z,16.79
2023-03-03T17:07:23.582Z,16.19
2023-03-03T17:10:18.076Z,17.05
2023-03-03T17:13:13.275Z,17.20
2023-03-03T17:15:54.086Z,17.05
2023-03-03T17:18:38.478Z,15.77
2023-03-03T17:21:17.463Z,16.26
2023-03-03T17:24:04.722Z,16.35
2023-03-03T17:26:58.587Z,16.64
2023-03-03T17:29:40.367Z,16.87
2023-03-03T17:32:28.269Z,16.27
2023-03-03T17:35:17.421Z,17.21
2023-03-03T17:37:55.177Z,17.52
2023-03-03T17:40:42.197Z,17.41
2023-03-03T17:43:16.810Z,16.80
2023-03-03T17:45:49.859Z,16.42
2023-03-03T17:48:55.866Z,16.34
2023-03-03T17:51:56.745Z,17.14
2023-03-03T17:54:44.373Z,16.36
2023-03-03T17:57:30.293Z,17.31
2023-03-03T18:00:15.648Z,17.64
2023-03-03T18:03:10.420Z,16.49
2023-03-03T18:06:04.924Z,16.77
2023-03-03T18:09:13.019Z,15.36
2023-03-03T18:12:00.231Z,16.81
2023-03-03T18:14:55.087Z,16.10
2023-03-03T18:17:52.340Z,16.57
2023-03-03T18:20:37.947Z,16.70
2023-03-03T18:23:41.633Z,17.94
2023-03-03T18:26:35.341Z,17.03
2023-03-03T18:29:29.871Z,16.81
2023-03-03T18:32:21.066Z,17.50
2023-03-03T18:35:10.663Z,16.99
2023-03-03T18:37:45.249Z,16.43
2023-03-03T18:40:29.551Z,17.35
2023-03-03T18:42:58.861Z,16.36
2023-03-03T18:45:51.917Z,15.64
2023-03-03T18:48:51.020Z,15.80
2023-03-03T18:51:52.384Z,16.44
2023-03-03T18:54:31.285Z,18.22
2023-03-03T18:57:19.640Z,16.30
2023-03-03T19:00:09.150Z,16.04
2023-03-03T19:02:49.722Z,16.03
2023-03-03T19:05:24.512Z,15.95
2023-03-03T19:08:02.826Z,15.99
2023-03-03T19:10:55.615Z,15.46
2023-03-03T19:13:47.072Z,16.18
2023-03-03T19:16:36.885Z,15.96
2023-03-03T19:19:15.657Z,16.29
2023-03-03T19:21:51.326Z,15.91
2023-03-03T19:24:34.590Z,15.86
2023-03-03T19:27:33.145Z,15.74
2023-03-03T19:30:55.433Z,15.62
2023-03-03T19:33:42.012Z,16.80
2023-03-03T19:36:45.728Z,15.95
2023-03-03T19:40:01.119Z,16.16
2023-03-03T19:42:45.022Z,15.52
2023-03-03T19:45:27.784Z,15.84
2023-03-03T19:48:07.653Z,15.71
2023-03-03T19:50:47.116Z,15.40
2023-03-03T19:53:32.706Z,16.61
2023-03-03T19:56:25.945Z,15.80
2023-03-03T19:59:17.970Z,15.24
2023-03-03T20:02:27.019Z,16.48
2023-03-03T20:05:09.600Z,15.57
2023-03-03T20:07:46.187Z,16.19
2023-03-03T20:10:36.788Z,16.09
2023-03-03T20:13:19.913Z,15.16
2023-03-03T20:15:57.848Z,15.61
2023-03-03T20:18:49.201Z,15.53
2023-03-03T20:21:29.702Z,15.62
2023-03-03T20:24:22.986Z,15.81
2023-03-03T20:27:01.369Z,15.85
2023-03-03T20:29:55.974Z,15.31
2023-03-03T20:32:37.836Z,16.37
2023-03-03T20:35:21.182Z,15.03
2023-03-03T20:38:00.426Z,15.80
2023-03-03T20:40:38.886Z,16.60
2023-03-03T20:43:21.535Z,15.56
2023-03-03T20:46:04.517Z,14.76
2023-03-03T20:49:02.267Z,15.08
2023-03-03T20:51:41.358Z,15.56
2023-03-03T20:54:22.515Z,15.26
2023-03-03T20:56:57.057Z,15.81
2023-03-03T20:59:33.666Z,16.13
2023-03-03T21:02:15.461Z,16.74
2023-03-03T21:04:46.294Z,15.69
2023-03-03T21:07:27.235Z,15.88
2023-03-03T21:10:16.718Z,16.30
2023-03-03T21:12:46.007Z,16.15
2023-03-03T21:15:29.532Z,16.39
2023-03-03T21:18:01.025Z,16.13
2023-03-03T21:20:34.309Z,15.71
2023-03-03T21:23:04.773Z,15.52
2023-03-03T21:25:53.287Z,14.91
2023-03-03T21:28:25.857Z,14.72
2023-03-03T21:31:11.104Z,15.66
2023-03-03T21:33:47.128Z,15.36
2023-03-03T21:36:18.310Z,15.78
2023-03-03T21:38:48.869Z,15.93
2023-03-03T21:41:19.191Z,15.91
2023-03-03T21:43:50.933Z,15.71
2023-03-03T21:46:22.003Z,16.02
2023-03-03T21:48:53.419Z,16.45
2023-03-03T21:51:24.521Z,14.96
2023-03-03T21:53:54.066Z,15.32
2023-03-03T21:56:23.868Z,16.11
2023-03-03T21:58:53.111Z,15.83
2023-03-03T22:01:24.159Z,15.48
2023-03-03T22:03:54.914Z,15.83
2023-03-03T22:06:25.010Z,16.56
2023-03-03T22:08:54.354Z,16.13
2023-03-03T22:11:24.184Z,17.11
2023-03-03T22:13:53.510Z,16.31
2023-03-03T22:16:23.328Z,15.96
2023-03-03T22:18:54.178Z,16.59
2023-03-03T22:21:23.955Z,17.34
2023-03-03T22:23:53.658Z,16.19
2023-03-03T22:26:23.471Z,15.07
2023-03-03T22:28:53.078Z,14.79
2023-03-03T22:31:22.989Z,15.38
2023-03-03T22:33:53.845Z,16.20
2023-03-03T22:36:23.537Z,17.24
2023-03-03T22:38:53.128Z,18.00
2023-03-03T22:41:23.153Z,17.58
2023-03-03T22:43:52.512Z,16.15
2023-03-03T22:46:22.332Z,16.01
2023-03-03T22:48:51.582Z,16.05
2023-03-03T22:51:22.681Z,17.00
2023-03-03T22:53:51.982Z,17.08
2023-03-03T22:56:21.723Z,16.16
2023-03-03T22:58:51.546Z,15.94
2023-03-03T23:01:21.240Z,16.15
2023-03-03T23:03:51.286Z,16.76
2023-03-03T23:06:22.239Z,16.39
2023-03-03T23:08:51.521Z,18.00
2023-03-03T23:11:21.787Z,17.54
2023-03-03T23:13:51.143Z,17.67
2023-03-03T23:16:21.052Z,16.76
2023-03-03T23:18:50.369Z,17.44
2023-03-03T23:21:21.339Z,17.99
2023-03-03T23:23:50.660Z,16.84
2023-03-03T23:26:20.284Z,17.29
2023-03-03T23:28:49.705Z,16.79
2023-03-03T23:31:19.276Z,17.70
2023-03-03T23:33:48.518Z,16.64
2023-03-03T23:36:18.239Z,17.31
2023-03-03T23:38:49.202Z,17.05
2023-03-03T23:41:18.850Z,16.70
2023-03-03T23:43:48.187Z,16.89
2023-03-03T23:46:17.988Z,17.07
2023-03-03T23:48:47.330Z,17.58
2023-03-03T23:51:17.064Z,17.91
2023-03-03T23:53:46.470Z,17.82
2023-03-03T23:56:17.456Z,17.26
2023-03-03T23:58:46.811Z,17.42
